CCGS Limnos — CG2350 — position and weather

sailwx.info

Track history (hours):
 
Tides and Currents Weather Stations Pressure Air Temp Water Temp Dewpoint Dewpoint Depression Visibility Wind Speed Wind Dir Waves Ship Positions

Oceanographic research ship CCGS Limnos (Canada)

Detailed information on ship capabilities available from University of Delaware's Ocean Information Center.

Last reported at 2018-Dec-12 15:00 UTC. Time now 2018-Dec-12 16:08 UTC.
Position N 44°42' W 075°30'.

Length 44.81 m; beam 9.75 m; draft 2.6 m.

Type: SAR. MMSI: 316001434.

Wind from 360 at 4 knots

Air temperature -6.1 ° C
Dewpoint -7.5 ° C

Date/timePositionNaut miles runAvg speedWind from/ knotsBaromVisibWave heightAir tempDewpointWater temp
2018-Dec-12 15:00N 44°42' W 075°30'0 0.0 360 / 4 -6.1-7.5
2018-Dec-12 14:00N 44°42' W 075°30'0 0.0 360 / 5 -6.8-7.6
2018-Dec-12 13:00N 44°42' W 075°30'0 0.0 340 / 6 -6.4-6.8
2018-Dec-12 12:00N 44°42' W 075°30'0 0.0 310 / 3 -6.5-6.7
2018-Dec-12 11:00N 44°42' W 075°30'0 0.0 270 / 1 -6.8-6.9
2018-Dec-12 10:00N 44°42' W 075°30'0 0.0 280 / 1 -6.8-7.0
2018-Dec-12 09:00N 44°42' W 075°30'0 0.0 320 / 3 -6.4-6.6
2018-Dec-12 08:00N 44°42' W 075°30'0 0.0 350 / 2 -6.1-6.3
2018-Dec-12 07:00N 44°42' W 075°30'0 0.0 020 / 4 -6.1-6.3
2018-Dec-12 06:00N 44°42' W 075°30'0 0.0 360 / 4 -5.6-5.8
2018-Dec-12 05:00N 44°42' W 075°30'0 0.0 350 / 3 -4.6-4.8
2018-Dec-12 04:00N 44°42' W 075°30'0 0.0 010 / 2 -3.5-3.6
2018-Dec-12 03:00N 44°42' W 075°30'0 0.0 340 / 3 -3.0-3.1
2018-Dec-12 02:00N 44°42' W 075°30'0 0.0 330 / 2 -2.6-2.7
2018-Dec-12 01:00N 44°42' W 075°30'0 0.0 280 / 2 -2.4-2.5
2018-Dec-12 00:00N 44°42' W 075°30'0 0.0 200 / 6 -2.5-2.7
2018-Dec-11 23:00N 44°42' W 075°30'0 0.0 190 / 8 -2.4-2.5
2018-Dec-11 22:00N 44°42' W 075°30'0 0.0 210 / 8 -2.5-2.7
2018-Dec-11 21:00N 44°42' W 075°30'0 0.0 170 / 8 -2.7-2.9
2018-Dec-11 20:00N 44°42' W 075°30'0 0.0 190 / 7 -2.8-3.0
2018-Dec-11 19:00N 44°42' W 075°30'0 0.0 180 / 8 -2.9-3.1
2018-Dec-11 18:00N 44°42' W 075°30'0 0.0 190 / 8 -3.0-3.2
2018-Dec-11 17:00N 44°42' W 075°30'0 0.0 180 / 9 -3.2-3.4
2018-Dec-11 16:00N 44°42' W 075°30'0 0.0 190 / 10 -3.5-3.7
2018-Dec-11 15:00N 44°42' W 075°30'0 0.0 190 / 8 -3.9-4.2
2018-Dec-11 14:00N 44°42' W 075°30'0 0.0 140 / 5 -5.6-5.8
2018-Dec-11 13:00N 44°42' W 075°30'0 0.0 120 / 4 -6.9-7.2
2018-Dec-11 12:00N 44°42' W 075°30'0 0.0 110 / 4 -7.7-8.2
2018-Dec-11 11:00N 44°42' W 075°30'0 0.0 140 / 3 -8.1-9.2
2018-Dec-11 10:00N 44°42' W 075°30'0 0.0 150 / 3 -8.3-9.4
2018-Dec-11 09:00N 44°42' W 075°30'0 0.0 130 / 5 -8.9-10.1
2018-Dec-11 08:00N 44°42' W 075°30'0 0.0 160 / 5 -9.6-10.6
2018-Dec-11 07:00N 44°42' W 075°30'0 0.0 150 / 4 -9.4-10.6
2018-Dec-11 06:00N 44°42' W 075°30'0 0.0 190 / 4 -9.5-10.7
2018-Dec-11 05:00N 44°42' W 075°30'0 0.0 140 / 7 -9.2-10.9
2018-Dec-11 04:00N 44°42' W 075°30'0 0.0 150 / 7 -9.2-11.1
2018-Dec-11 03:00N 44°42' W 075°30'0 0.0 130 / 6 -8.9-11.1
2018-Dec-11 02:00N 44°42' W 075°30'0 0.0 120 / 6 -8.4-11.1
2018-Dec-11 01:00N 44°42' W 075°30'0 0.0 120 / 6 -8.1-10.9 4.5
2018-Dec-11 00:00N 44°42' W 075°30'0 0.0 060 / 3 -8.1-11.6 4.6
2018-Dec-10 23:00N 44°42' W 075°30'0 0.0 020 / 4 -7.3-11.3 4.5
2018-Dec-10 22:00N 44°42' W 075°30'7 7.4 020 / 7 -6.5-10.6 4.7
2018-Dec-10 21:00N 44°48' W 075°24'4 4.3 010 / 4 -6.4-10.9 4.6
2018-Dec-10 20:00N 44°48' W 075°18'6 6.0 290 / 2 -6.6-11.5 4.7
2018-Dec-10 19:00N 44°54' W 075°18'9 8.5 330 / 4 -7.3-11.7 4.6
2018-Dec-10 18:00N 44°54' W 075°06'9 8.5 340 / 4 -7.5-11.8 4.5
2018-Dec-10 17:00N 44°54' W 074°54'4 4.3 330 / 4 -8.3-11.8 3.9
2018-Dec-10 16:00N 44°54' W 074°48'7 7.4 280 / 2 -8.0-11.4 2.7
2018-Dec-10 15:00N 45°00' W 074°42'0 0.0 330 / 5 -9.0-12.0 4.3
2018-Dec-10 14:00N 45°00' W 074°42'0 0.0 320 / 3 -9.3-12.8
2018-Dec-10 13:00N 45°00' W 074°42'0 0.0 320 / 4 -10.3-13.1
2018-Dec-10 12:00N 45°00' W 074°42'0 0.0 310 / 4 -9.8-12.6
2018-Dec-10 11:00N 45°00' W 074°42'0 0.0 310 / 3 -8.9-12.1
2018-Dec-10 10:00N 45°00' W 074°42'0 0.0 330 / 3 -7.9-11.8
2018-Dec-10 09:00N 45°00' W 074°42'0 0.0 360 / 2 -6.6-9.6
2018-Dec-10 08:00N 45°00' W 074°42'0 0.0 350 / 5 -5.3-8.7
2018-Dec-10 07:00N 45°00' W 074°42'0 0.0 360 / 5 -4.1-7.1
2018-Dec-10 06:00N 45°00' W 074°42'0 0.0 320 / 5 -2.0-4.5
2018-Dec-10 05:00N 45°00' W 074°42'0 0.0 320 / 4 -1.4-3.1
2018-Dec-10 04:00N 45°00' W 074°42'0 0.0 270 / 8 -0.8-3.1
2018-Dec-10 03:00N 45°00' W 074°42'0 0.0 250 / 10 -0.3-2.8
2018-Dec-10 02:00N 45°00' W 074°42'0 0.0 250 / 13 -0.1-2.8
2018-Dec-10 01:00N 45°00' W 074°42'0 0.0 240 / 12 -0.3-3.2
2018-Dec-10 00:00N 45°00' W 074°42'0 0.0 240 / 12 -0.2-3.5
2018-Dec-09 23:00N 45°00' W 074°42'0 0.0 240 / 13 -0.2-3.9
2018-Dec-09 22:00N 45°00' W 074°42'0 0.0 240 / 17 -0.0-3.9
2018-Dec-09 21:00N 45°00' W 074°42'0 0.0 250 / 16 0.2-3.2
2018-Dec-09 20:00N 45°00' W 074°42'0 0.0 240 / 12 -0.3-1.9
2018-Dec-09 19:00N 45°00' W 074°42'0 0.0 230 / 15 -0.8-2.2
2018-Dec-09 18:00N 45°00' W 074°42'0 0.0 230 / 16 -1.1-2.3
2018-Dec-09 17:00N 45°00' W 074°42'0 0.0 230 / 18 -1.5-2.6
2018-Dec-09 16:00N 45°00' W 074°42'0 0.0 230 / 18 -1.4-3.4
2018-Dec-09 15:00N 45°00' W 074°42'0 0.0 230 / 14 -2.1-3.7
2018-Dec-09 14:00N 45°00' W 074°42'0 0.0 230 / 12 -2.5-3.6
2018-Dec-09 13:00N 45°00' W 074°42'0 0.0 230 / 11 -3.1-3.7
2018-Dec-09 12:00N 45°00' W 074°42'0 0.0 230 / 9 -4.3-4.5
2018-Dec-09 11:00N 45°00' W 074°42'0 0.0 220 / 6 -6.1-6.3
2018-Dec-09 10:00N 45°00' W 074°42'0 0.0 200 / 6 -6.7-6.9
2018-Dec-09 09:00N 45°00' W 074°42'0 0.0 200 / 4 -7.1-7.3
2018-Dec-09 08:00N 45°00' W 074°42'0 0.0 220 / 6 -7.4-7.6
2018-Dec-09 07:00N 45°00' W 074°42'0 0.0 250 / 3 -8.3-8.5
2018-Dec-09 06:00N 45°00' W 074°42'0 0.0 190 / 3 -7.8-8.0
2018-Dec-09 05:00N 45°00' W 074°42'0 0.0 270 / 3 -7.4-7.6
2018-Dec-09 04:00N 45°00' W 074°42'0 0.0 300 / 3 -8.2-8.5
2018-Dec-09 03:00N 45°00' W 074°42'0 0.0 290 / 3 -7.6-7.8
2018-Dec-09 02:00N 45°00' W 074°42'0 0.0 230 / 8 -7.6-8.1
2018-Dec-09 01:00N 45°00' W 074°42'0 0.0 230 / 8 -8.5-8.9 4.5
2018-Dec-09 00:00N 45°00' W 074°42'0 0.0 240 / 10 -8.6-8.8 4.5
2018-Dec-08 23:00N 45°00' W 074°42'4 4.2 240 / 7 -8.5-8.7 4.5
2018-Dec-08 22:00N 45°00' W 074°36'7 7.3 210 / 6 -8.1-8.5 4.5
2018-Dec-08 21:00N 45°06' W 074°30'1010.4 250 / 8 -7.9-11.1 4.5
2018-Dec-08 20:00N 45°12' W 074°18'4 4.2 240 / 5 -8.7-11.5 4.0
2018-Dec-08 19:00N 45°12' W 074°12'0 0.0 290 / 4 -9.5-12.0 3.9
2018-Dec-08 18:00N 45°12' W 074°12'0 0.0 230 / 7 -10.4-12.0 3.9
2018-Dec-08 17:00N 45°12' W 074°12'2 9.1 240 / 7 -11.5-12.5 3.9
2018-Dec-08 16:45N 45°14' W 074°14'6 7.6
2018-Dec-08 16:00N 45°12' W 074°06'3 9.5 220 / 7 -13.1-14.6 4.0
2018-Dec-08 15:40N 45°13' W 074°02'1 7.6
2018-Dec-08 15:30N 45°14' W 074°00'4 7.8
2018-Dec-08 15:00N 45°17' W 073°57'2239.8
2018-Dec-08 15:00N 45°18' W 073°54'1 2.5 260 / 4 -13.9-16.6 3.9
2018-Dec-08 14:30N 45°18' W 073°56'0 0.0
2018-Dec-08 14:00N 45°18' W 073°56'1757.1
2018-Dec-08 14:00N 45°18' W 073°54'1 2.5 280 / 3 -14.7-17.0
2018-Dec-08 13:30N 45°18' W 073°56'0 0.0
2018-Dec-08 13:00N 45°18' W 073°56'1757.1
2018-Dec-08 13:00N 45°18' W 073°54'1 2.5 280 / 2 -16.7-17.5
2018-Dec-08 12:30N 45°18' W 073°56'0 0.0
2018-Dec-08 12:00N 45°18' W 073°56'1757.1
2018-Dec-08 12:00N 45°18' W 073°54'1 2.5 250 / 3 -16.4-17.3
2018-Dec-08 11:30N 45°18' W 073°56'0 0.0
2018-Dec-08 11:00N 45°18' W 073°56'1908.6
2018-Dec-08 11:00N 45°18' W 073°54'1 2.5 260 / 2 -16.0-17.6
2018-Dec-08 10:30N 45°18' W 073°56'0 0.0
2018-Dec-08 10:00N 45°18' W 073°56'1757.1
2018-Dec-08 10:00N 45°18' W 073°54'1 2.5 270 / 3 -16.2-17.7
2018-Dec-08 09:30N 45°18' W 073°56'0 0.0
2018-Dec-08 09:00N 45°18' W 073°56'1757.1
2018-Dec-08 09:00N 45°18' W 073°54'1 2.5 280 / 2 -15.9-17.6
2018-Dec-08 08:30N 45°18' W 073°56'0 0.0
2018-Dec-08 08:00N 45°18' W 073°56'1757.1
2018-Dec-08 08:00N 45°18' W 073°54'1 2.5 290 / 2 -15.9-17.4
2018-Dec-08 07:30N 45°18' W 073°56'0 0.0
2018-Dec-08 07:00N 45°18' W 073°56'1757.1
2018-Dec-08 07:00N 45°18' W 073°54'1 2.5 270 / 2 -15.3-17.6
2018-Dec-08 06:30N 45°18' W 073°56'0 0.0
2018-Dec-08 06:00N 45°18' W 073°56'1908.6
2018-Dec-08 06:00N 45°18' W 073°54'1 2.5 240 / 2 -15.1-17.9
2018-Dec-08 05:30N 45°18' W 073°56'0 0.0
2018-Dec-08 05:00N 45°18' W 073°56'1759.7
2018-Dec-08 05:00N 45°18' W 073°54'1 2.5 270 / 2 -14.9-17.6
2018-Dec-08 04:30N 45°18' W 073°56'0 0.0
2018-Dec-08 04:00N 45°18' W 073°56'1908.6
2018-Dec-08 04:00N 45°18' W 073°54'1 2.5 310 / 3 -13.9-16.9
2018-Dec-08 03:30N 45°18' W 073°56'0 0.0
2018-Dec-08 03:00N 45°18' W 073°56'1649.0
2018-Dec-08 03:00N 45°18' W 073°54'1 2.5 310 / 4 -13.5-16.1 4.4
2018-Dec-08 02:30N 45°18' W 073°56'0 0.0
2018-Dec-08 02:00N 45°18' W 073°56'1757.1
2018-Dec-08 02:00N 45°18' W 073°54'1 2.5 310 / 5 -13.0-16.2 4.4
2018-Dec-08 01:30N 45°18' W 073°56'0 0.0
2018-Dec-08 01:01N 45°18' W 073°56'174.5
2018-Dec-08 01:00N 45°18' W 073°54'1 2.7 290 / 4 -12.3-15.9 4.4
2018-Dec-08 00:31N 45°18' W 073°56'510.0
2018-Dec-08 00:00N 45°14' W 074°00'2132.7
2018-Dec-08 00:00N 45°12' W 074°00'612.2 290 / 13 -11.1-15.3 4.5
2018-Dec-07 23:29N 45°14' W 074°08'714.3
2018-Dec-07 23:00N 45°12' W 074°18'1010.4 260 / 12 -11.2-14.2 4.4
2018-Dec-07 22:00N 45°06' W 074°30'7 7.3 260 / 13 -10.9-14.2 4.8
2018-Dec-07 21:00N 45°00' W 074°36'1010.4 280 / 11 -10.5-14.8 4.8
2018-Dec-07 20:00N 44°54' W 074°48'4 4.3 280 / 10 -10.6-14.8 3.3
2018-Dec-07 19:00N 44°54' W 074°54'9 8.5 300 / 9 -10.0-13.4 5.0
2018-Dec-07 18:00N 44°54' W 075°06'1010.4 270 / 11 -10.4-13.6 5.2
2018-Dec-07 17:00N 44°48' W 075°18'1010.4 270 / 7 -10.7-14.0 5.3
2018-Dec-07 16:00N 44°42' W 075°30'0 0.0 280 / 5 -10.6-14.2
2018-Dec-07 15:00N 44°42' W 075°30'0 0.0 310 / 5 -11.4-14.5
2018-Dec-07 14:00N 44°42' W 075°30'0 0.0 320 / 6 -11.9-14.5
2018-Dec-07 13:00N 44°42' W 075°30'0 0.0 300 / 4 -12.0-14.0
2018-Dec-07 12:00N 44°42' W 075°30'0 0.0 300 / 6 -11.5-13.5
2018-Dec-07 11:00N 44°42' W 075°30'0 0.0 310 / 5 -10.7-12.7
2018-Dec-07 10:00N 44°42' W 075°30'0 0.0 290 / 3 -9.8-11.5
2018-Dec-07 09:00N 44°42' W 075°30'0 0.0 320 / 8 -9.2-11.6
2018-Dec-07 08:00N 44°42' W 075°30'0 0.0 310 / 7 -7.9-9.9
2018-Dec-07 07:00N 44°42' W 075°30'0 0.0 330 / 8 -6.0-8.1
2018-Dec-07 06:00N 44°42' W 075°30'0 0.0 310 / 10 -4.4-7.0
2018-Dec-07 05:00N 44°42' W 075°30'0 0.0 320 / 6 -1.9-3.4
2018-Dec-07 04:00N 44°42' W 075°30'0 0.0 300 / 4 -1.5-1.7
2018-Dec-07 03:00N 44°42' W 075°30'0 0.0 290 / 5 -0.2-1.1 5.3
2018-Dec-07 02:00N 44°42' W 075°30'0 0.0 250 / 5 0.1-0.8 5.2
2018-Dec-07 01:00N 44°42' W 075°30'7 7.4 250 / 7 0.6-1.2 5.2
2018-Dec-07 00:00N 44°48' W 075°24'4 4.3 200 / 9 0.7-0.5 5.5
2018-Dec-06 23:00N 44°48' W 075°18'7 7.4 210 / 7 0.5-1.0 5.3
2018-Dec-06 22:00N 44°54' W 075°12'4 4.3 220 / 11 0.6-0.4 5.5
2018-Dec-06 21:00N 44°54' W 075°06'9 8.5 230 / 16 0.4-0.1 5.2
2018-Dec-06 20:00N 44°54' W 074°54'4 4.3 190 / 8 -0.0-0.5 4.1
2018-Dec-06 19:00N 44°54' W 074°48'7 7.4 220 / 4 0.4-1.8 3.4
2018-Dec-06 18:00N 45°00' W 074°42'7 7.3 220 / 10 0.2-2.2 5.2
2018-Dec-06 17:00N 45°06' W 074°36'8 8.5 240 / 16 -0.3-1.2 5.1
2018-Dec-06 16:00N 45°06' W 074°24'7 7.3 220 / 17 -0.9-1.0 4.9
2018-Dec-06 15:00N 45°12' W 074°18'410.8 210 / 15 -1.5-1.7 4.9
2018-Dec-06 14:36N 45°14' W 074°12'1 8.2
2018-Dec-06 14:28N 45°14' W 074°11'4 8.3
2018-Dec-06 14:00N 45°12' W 074°06'3 4.8 230 / 11 -2.1-2.3 4.8
2018-Dec-06 13:23N 45°13' W 074°02'3 7.7
2018-Dec-06 13:00N 45°15' W 073°59'4327.4
2018-Dec-06 13:00N 45°12' W 073°54'612.0 160 / 3 -3.7-3.8 4.8
2018-Dec-06 12:30N 45°18' W 073°56'0 0.7
2018-Dec-06 12:00N 45°18' W 073°56'1217.1
2018-Dec-06 12:00N 45°18' W 073°54'1 2.6 -4.3-4.4
2018-Dec-06 11:30N 45°18' W 073°56'0 0.0
2018-Dec-06 11:00N 45°18' W 073°56'1216.3
2018-Dec-06 11:00N 45°18' W 073°54'1 2.1 210 / 2 -4.2-4.4
2018-Dec-06 10:24N 45°18' W 073°56'0 0.0
2018-Dec-06 10:00N 45°18' W 073°56'1227.1
2018-Dec-06 10:00N 45°18' W 073°54'1 2.6 200 / 3 -3.9-4.1
2018-Dec-06 09:30N 45°18' W 073°56'0 0.0
2018-Dec-06 09:00N 45°18' W 073°56'1239.9
2018-Dec-06 09:00N 45°18' W 073°54'1 2.6 150 / 3 -4.5-4.6
2018-Dec-06 08:30N 45°18' W 073°56'0 0.0
2018-Dec-06 08:00N 45°18' W 073°56'1227.9
2018-Dec-06 08:00N 45°18' W 073°54'1 2.6 140 / 3 -4.7-4.8
2018-Dec-06 07:30N 45°18' W 073°56'0 0.0
2018-Dec-06 07:00N 45°18' W 073°56'1227.1
2018-Dec-06 07:00N 45°18' W 073°54'1 2.6 120 / 2 -4.6-4.7
2018-Dec-06 06:30N 45°18' W 073°56'0 0.0
2018-Dec-06 06:00N 45°18' W 073°56'1206.5
2018-Dec-06 06:00N 45°18' W 073°54'1 2.6 110 / 2 -4.7-4.8
2018-Dec-06 05:30N 45°18' W 073°56'0 0.0
2018-Dec-06 05:00N 45°18' W 073°56'1217.1
2018-Dec-06 05:00N 45°18' W 073°54'1 2.6 120 / 2 -4.9-5.1
2018-Dec-06 04:30N 45°18' W 073°56'1 2.5
2018-Dec-06 04:00N 45°18' W 073°54'113.4 100 / 2 -5.0-5.1
2018-Dec-06 03:54N 45°18' W 073°56'0 0.0
2018-Dec-06 03:00N 45°18' W 073°56'1217.1
2018-Dec-06 03:00N 45°18' W 073°54'1 1.8 110 / 3 -4.9-5.1
2018-Dec-06 02:18N 45°18' W 073°56'0 0.0
2018-Dec-06 02:00N 45°18' W 073°56'1216.3
2018-Dec-06 02:00N 45°18' W 073°54'1 2.6 110 / 2 -4.8-5.0
2018-Dec-06 01:30N 45°18' W 073°56'0 0.0
2018-Dec-06 01:00N 45°18' W 073°56'1216.3
2018-Dec-06 01:00N 45°18' W 073°54'1 2.6 100 / 3 -4.9-5.0 4.7
2018-Dec-06 00:30N 45°18' W 073°56'1 2.5
2018-Dec-06 00:00N 45°18' W 073°54'113.4 100 / 3 -4.8-5.0 4.8
2018-Dec-05 23:54N 45°18' W 073°56'0 0.0
2018-Dec-05 23:30N 45°18' W 073°56'0 0.0
2018-Dec-05 23:00N 45°18' W 073°56'1216.3
2018-Dec-05 23:00N 45°18' W 073°54'1 2.3 120 / 3 -4.8-5.0 4.8
2018-Dec-05 22:26N 45°18' W 073°56'1 2.6
2018-Dec-05 22:00N 45°17' W 073°56'2165.8
2018-Dec-05 22:00N 45°18' W 073°54'611.1 120 / 3 -4.5-4.7 4.8
2018-Dec-05 21:27N 45°14' W 074°00'4 9.7
2018-Dec-05 21:00N 45°12' W 074°06'233.0 050 / 4 -4.4-4.6 4.9
2018-Dec-05 20:55N 45°14' W 074°08'7 7.8
2018-Dec-05 20:00N 45°12' W 074°18'1010.4 110 / 3 -4.0-4.2 5.0
2018-Dec-05 19:00N 45°06' W 074°30'1514.7 060 / 2 -3.6-3.8 5.2
2018-Dec-05 18:00N 44°54' W 074°42'9 8.5 260 / 3 -3.1-4.1 3.6
2018-Dec-05 17:00N 44°54' W 074°54'4 4.3 240 / 3 -3.0-3.9 4.5
2018-Dec-05 16:00N 44°54' W 075°00'1312.8 220 / 6 -3.8-4.4 5.5
2018-Dec-05 15:00N 44°54' W 075°18'7 7.4 190 / 5 -4.0-4.4 5.5
2018-Dec-05 14:00N 44°48' W 075°24'7 7.4 200 / 4 -4.1-4.7 5.7
2018-Dec-05 13:00N 44°42' W 075°30'0 0.0 310 / 2 -4.4-4.8
2018-Dec-05 12:00N 44°42' W 075°30'0 0.0 300 / 2 -4.6-5.1
2018-Dec-05 11:00N 44°42' W 075°30'0 0.0 300 / 2 -4.5-5.5
2018-Dec-05 10:00N 44°42' W 075°30'0 0.0 290 / 3 -4.7-5.7
2018-Dec-05 09:00N 44°42' W 075°30'0 0.0 330 / 2 -4.6-5.9
2018-Dec-05 08:00N 44°42' W 075°30'0 0.0 020 / 2 -4.4-5.8
2018-Dec-05 07:00N 44°42' W 075°30'0 0.0 310 / 2 -4.2-6.1
2018-Dec-05 06:00N 44°42' W 075°30'0 0.0 250 / 3 -4.3-6.1
2018-Dec-05 05:00N 44°42' W 075°30'0 0.0 250 / 5 -4.1-6.4
2018-Dec-05 04:00N 44°42' W 075°30'0 0.0 240 / 8 -3.8-6.2
2018-Dec-05 03:00N 44°42' W 075°30'0 0.0 240 / 6 -4.0-6.2
2018-Dec-05 02:00N 44°42' W 075°30'0 0.0 250 / 5 -4.4-6.7
2018-Dec-05 01:00N 44°42' W 075°30'0 0.0 240 / 7 -4.4-6.5
2018-Dec-05 00:00N 44°42' W 075°30'0 0.0 250 / 4 -4.7-7.3
2018-Dec-04 23:00N 44°42' W 075°30'0 0.0 280 / 3 -4.5-7.5
2018-Dec-04 22:00N 44°42' W 075°30'0 0.0 250 / 4 -4.0-7.5
2018-Dec-04 21:00N 44°42' W 075°30'0 0.0 250 / 5 -3.4-7.3
2018-Dec-04 20:00N 44°42' W 075°30'0 0.0 270 / 5 -3.4-7.4
2018-Dec-04 19:00N 44°42' W 075°30'0 0.0 280 / 5 -3.8-7.9
2018-Dec-04 18:00N 44°42' W 075°30'0 0.0 270 / 5 -4.2-8.3
2018-Dec-04 17:00N 44°42' W 075°30'0 0.0 300 / 6 -5.3-8.8
2018-Dec-04 16:00N 44°42' W 075°30'0 0.0 300 / 6 -5.6-8.5
2018-Dec-04 15:00N 44°42' W 075°30'0 0.0 320 / 4 -5.4-8.4
2018-Dec-04 14:00N 44°42' W 075°30'0 0.0 340 / 4 -5.7-8.6
2018-Dec-04 13:00N 44°42' W 075°30'0 0.0 340 / 4 -5.7-9.0
2018-Dec-04 12:00N 44°42' W 075°30'0 0.0 330 / 5 -5.6-8.9
2018-Dec-04 11:00N 44°42' W 075°30'0 0.0 350 / 6 -5.7-9.1
2018-Dec-04 10:00N 44°42' W 075°30'0 0.0 340 / 8 -5.5-8.7
2018-Dec-04 09:00N 44°42' W 075°30'0 0.0 330 / 6 -5.4-8.0
2018-Dec-04 08:00N 44°42' W 075°30'0 0.0 320 / 9 -4.8-7.4
2018-Dec-04 07:00N 44°42' W 075°30'0 0.0 320 / 8 -3.9-5.5
2018-Dec-04 06:00N 44°42' W 075°30'0 0.0 310 / 7 -3.1-4.2
2018-Dec-04 05:00N 44°42' W 075°30'0 0.0 310 / 7 -2.1-2.9
2018-Dec-04 04:00N 44°42' W 075°30'0 0.0 320 / 6 -1.4-1.6
2018-Dec-04 03:00N 44°42' W 075°30'0 0.0 330 / 5 -0.9-1.3
2018-Dec-04 02:00N 44°42' W 075°30'0 0.0 310 / 4 -1.3-1.5 5.8
2018-Dec-04 01:00N 44°42' W 075°30'0 0.0 290 / 2 -0.9-1.1 5.8
2018-Dec-04 00:00N 44°42' W 075°30'1010.4 320 / 4 -0.9-1.1 5.8
2018-Dec-03 23:00N 44°36' W 075°42'7 7.4 330 / 7 -0.8-1.4 5.8
2018-Dec-03 22:00N 44°30' W 075°48'1312.7 330 / 11 -0.6-1.1 5.9
2018-Dec-03 21:00N 44°18' W 075°54'1010.5 340 / 5997.3 -0.9-1.1 6.3
2018-Dec-03 20:00N 44°12' W 076°06'9 8.6 340 / 141005.8 -1.0-1.1 6.2
2018-Dec-03 19:00N 44°12' W 076°18'429.9 340 / 141004.5 -0.3-1.1 5.9
2018-Dec-03 18:52N 44°14' W 076°22'3 9.3
2018-Dec-03 18:31N 44°14' W 076°26'2 2.9
2018-Dec-03 17:57N 44°14' W 076°29'0 0.0
2018-Dec-03 16:56N 44°14' W 076°29'0 0.0
2018-Dec-03 16:20N 44°14' W 076°29'0 0.0
2018-Dec-03 15:38N 44°14' W 076°29'0 0.0
2018-Dec-03 15:26N 44°14' W 076°29'0 0.0
2018-Dec-03 14:02N 44°14' W 076°29'254.8
2018-Dec-03 14:00N 44°12' W 076°30'251.2 250 / 9999.6 4.8 4.6
2018-Dec-03 13:57N 44°14' W 076°29'0 0.0
2018-Dec-03 13:09N 44°14' W 076°29'213.8
2018-Dec-03 13:00N 44°12' W 076°30'213.6 250 / 10998.8 4.9 4.8
2018-Dec-03 12:50N 44°14' W 076°29'0 0.0
2018-Dec-03 12:02N 44°14' W 076°29'254.8
2018-Dec-03 12:00N 44°12' W 076°30'213.6 240 / 11997.9 5.5 5.3
2018-Dec-03 11:50N 44°14' W 076°29'0 0.0
2018-Dec-03 11:09N 44°14' W 076°29'214.4
2018-Dec-03 11:00N 44°12' W 076°30'2 8.4 240 / 13997.6 6.3 5.5
2018-Dec-03 10:44N 44°14' W 076°29'0 0.0
2018-Dec-03 10:02N 44°14' W 076°29'254.7
2018-Dec-03 10:00N 44°12' W 076°30'2 4.7 230 / 12997.4 6.6 6.0
2018-Dec-03 09:32N 44°14' W 076°29'2 4.0
2018-Dec-03 09:00N 44°12' W 076°30'214.3 210 / 11997.0 7.5 7.4
2018-Dec-03 08:50N 44°14' W 076°29'0 0.0
2018-Dec-03 08:14N 44°14' W 076°29'2 9.0
2018-Dec-03 08:00N 44°12' W 076°30'0 0.0 200 / 10997.2 7.1 7.0
2018-Dec-03 07:00N 44°12' W 076°30'2 6.3 190 / 7997.0 6.5 6.4
2018-Dec-03 06:39N 44°14' W 076°29'0 0.0
2018-Dec-03 06:08N 44°14' W 076°29'215.6
2018-Dec-03 06:00N 44°12' W 076°30'213.9 210 / 6996.6 7.6 7.5
2018-Dec-03 05:50N 44°14' W 076°29'2 2.6
2018-Dec-03 05:00N 44°12' W 076°30'2 6.1 200 / 9997.4 7.1 7.0
2018-Dec-03 04:38N 44°14' W 076°29'2 3.4
2018-Dec-03 04:00N 44°12' W 076°30'250.8 210 / 11996.7 8.7 8.5
2018-Dec-03 03:57N 44°14' W 076°29'0 0.0
2018-Dec-03 03:27N 44°14' W 076°29'2 4.8
2018-Dec-03 03:00N 44°12' W 076°30'2 6.1 170 / 12997.4 8.0 7.9
2018-Dec-03 02:38N 44°14' W 076°29'0 0.0
2018-Dec-03 02:14N 44°14' W 076°29'2 8.8
2018-Dec-03 02:00N 44°12' W 076°30'238.6 180 / 16998.0 7.9 7.7
2018-Dec-03 01:56N 44°14' W 076°29'0 0.0
2018-Dec-03 01:26N 44°14' W 076°29'2 4.9
2018-Dec-03 01:00N 44°12' W 076°30'250.9 180 / 14997.8 7.8 7.7 3.5
2018-Dec-03 00:57N 44°14' W 076°29'0 0.0
2018-Dec-03 00:26N 44°14' W 076°29'2 4.9
2018-Dec-03 00:00N 44°12' W 076°30'236.1 180 / 13998.1 7.8 7.7 3.5
2018-Dec-02 23:56N 44°14' W 076°29'0 0.0
2018-Dec-02 23:26N 44°14' W 076°29'2 4.9
2018-Dec-02 23:00N 44°12' W 076°30'236.0 180 / 15998.4 7.8 7.7 3.5
2018-Dec-02 22:56N 44°14' W 076°29'0 0.0
2018-Dec-02 22:29N 44°14' W 076°29'2 5.0
2018-Dec-02 22:00N 44°12' W 076°31'160.7
2018-Dec-02 22:00N 44°12' W 076°30'9 8.6 170 / 18998.2 7.4 7.3 6.2
2018-Dec-02 21:00N 44°12' W 076°42'1010.5 190 / 6998.7 7.1 7.0 6.4
2018-Dec-02 20:00N 44°06' W 076°54'7 7.4 180 / 7998.9 6.7 6.7 6.5
2018-Dec-02 19:00N 44°00' W 077°00'1212.0 140 / 6998.7 7.4 7.3 2.5
2018-Dec-02 18:00N 44°12' W 077°00'1010.5 160 / 9999.5 5.8 5.7 2.1
2018-Dec-02 17:00N 44°06' W 077°12'4 4.3 170 / 101000.2 5.8 5.7 2.1
2018-Dec-02 16:00N 44°06' W 077°18'0 0.0 130 / 91001.2 5.0 4.9
2018-Dec-02 15:00N 44°06' W 077°18'   130 / 101002.1 4.2 4.1
Track history (hours):
 
Tides and Currents Weather Stations Pressure Air Temp Water Temp Dewpoint Dewpoint Depression Visibility Wind Speed Wind Dir Waves Ship Positions

Oceanographic research ship CCGS Limnos (Canada)

Detailed information on ship capabilities available from University of Delaware's Ocean Information Center.

Last reported at 2018-Dec-12 15:00 UTC. Time now 2018-Dec-12 16:08 UTC.
Position N 44°42' W 075°30'.

Length 44.81 m; beam 9.75 m; draft 2.6 m.

Type: SAR. MMSI: 316001434.

Wind from 360 at 4 knots

Air temperature -6.1 ° C
Dewpoint -7.5 ° C

Date/timePositionNaut miles runAvg speedWind from/ knotsBaromVisibWave heightAir tempDewpointWater temp
2018-Dec-12 15:00N 44°42' W 075°30'0 0.0 360 / 4 -6.1-7.5
2018-Dec-12 14:00N 44°42' W 075°30'0 0.0 360 / 5 -6.8-7.6
2018-Dec-12 13:00N 44°42' W 075°30'0 0.0 340 / 6 -6.4-6.8
2018-Dec-12 12:00N 44°42' W 075°30'0 0.0 310 / 3 -6.5-6.7
2018-Dec-12 11:00N 44°42' W 075°30'0 0.0 270 / 1 -6.8-6.9
2018-Dec-12 10:00N 44°42' W 075°30'0 0.0 280 / 1 -6.8-7.0
2018-Dec-12 09:00N 44°42' W 075°30'0 0.0 320 / 3 -6.4-6.6
2018-Dec-12 08:00N 44°42' W 075°30'0 0.0 350 / 2 -6.1-6.3
2018-Dec-12 07:00N 44°42' W 075°30'0 0.0 020 / 4 -6.1-6.3
2018-Dec-12 06:00N 44°42' W 075°30'0 0.0 360 / 4 -5.6-5.8
2018-Dec-12 05:00N 44°42' W 075°30'0 0.0 350 / 3 -4.6-4.8
2018-Dec-12 04:00N 44°42' W 075°30'0 0.0 010 / 2 -3.5-3.6
2018-Dec-12 03:00N 44°42' W 075°30'0 0.0 340 / 3 -3.0-3.1
2018-Dec-12 02:00N 44°42' W 075°30'0 0.0 330 / 2 -2.6-2.7
2018-Dec-12 01:00N 44°42' W 075°30'0 0.0 280 / 2 -2.4-2.5
2018-Dec-12 00:00N 44°42' W 075°30'0 0.0 200 / 6 -2.5-2.7
2018-Dec-11 23:00N 44°42' W 075°30'0 0.0 190 / 8 -2.4-2.5
2018-Dec-11 22:00N 44°42' W 075°30'0 0.0 210 / 8 -2.5-2.7
2018-Dec-11 21:00N 44°42' W 075°30'0 0.0 170 / 8 -2.7-2.9
2018-Dec-11 20:00N 44°42' W 075°30'0 0.0 190 / 7 -2.8-3.0
2018-Dec-11 19:00N 44°42' W 075°30'0 0.0 180 / 8 -2.9-3.1
2018-Dec-11 18:00N 44°42' W 075°30'0 0.0 190 / 8 -3.0-3.2
2018-Dec-11 17:00N 44°42' W 075°30'0 0.0 180 / 9 -3.2-3.4
2018-Dec-11 16:00N 44°42' W 075°30'0 0.0 190 / 10 -3.5-3.7
2018-Dec-11 15:00N 44°42' W 075°30'0 0.0 190 / 8 -3.9-4.2
2018-Dec-11 14:00N 44°42' W 075°30'0 0.0 140 / 5 -5.6-5.8
2018-Dec-11 13:00N 44°42' W 075°30'0 0.0 120 / 4 -6.9-7.2
2018-Dec-11 12:00N 44°42' W 075°30'0 0.0 110 / 4 -7.7-8.2
2018-Dec-11 11:00N 44°42' W 075°30'0 0.0 140 / 3 -8.1-9.2
2018-Dec-11 10:00N 44°42' W 075°30'0 0.0 150 / 3 -8.3-9.4
2018-Dec-11 09:00N 44°42' W 075°30'0 0.0 130 / 5 -8.9-10.1
2018-Dec-11 08:00N 44°42' W 075°30'0 0.0 160 / 5 -9.6-10.6
2018-Dec-11 07:00N 44°42' W 075°30'0 0.0 150 / 4 -9.4-10.6
2018-Dec-11 06:00N 44°42' W 075°30'0 0.0 190 / 4 -9.5-10.7
2018-Dec-11 05:00N 44°42' W 075°30'0 0.0 140 / 7 -9.2-10.9
2018-Dec-11 04:00N 44°42' W 075°30'0 0.0 150 / 7 -9.2-11.1
2018-Dec-11 03:00N 44°42' W 075°30'0 0.0 130 / 6 -8.9-11.1
2018-Dec-11 02:00N 44°42' W 075°30'0 0.0 120 / 6 -8.4-11.1
2018-Dec-11 01:00N 44°42' W 075°30'0 0.0 120 / 6 -8.1-10.9 4.5
2018-Dec-11 00:00N 44°42' W 075°30'0 0.0 060 / 3 -8.1-11.6 4.6
2018-Dec-10 23:00N 44°42' W 075°30'0 0.0 020 / 4 -7.3-11.3 4.5
2018-Dec-10 22:00N 44°42' W 075°30'7 7.4 020 / 7 -6.5-10.6 4.7
2018-Dec-10 21:00N 44°48' W 075°24'4 4.3 010 / 4 -6.4-10.9 4.6
2018-Dec-10 20:00N 44°48' W 075°18'6 6.0 290 / 2 -6.6-11.5 4.7
2018-Dec-10 19:00N 44°54' W 075°18'9 8.5 330 / 4 -7.3-11.7 4.6
2018-Dec-10 18:00N 44°54' W 075°06'9 8.5 340 / 4 -7.5-11.8 4.5
2018-Dec-10 17:00N 44°54' W 074°54'4 4.3 330 / 4 -8.3-11.8 3.9
2018-Dec-10 16:00N 44°54' W 074°48'7 7.4 280 / 2 -8.0-11.4 2.7
2018-Dec-10 15:00N 45°00' W 074°42'0 0.0 330 / 5 -9.0-12.0 4.3
2018-Dec-10 14:00N 45°00' W 074°42'0 0.0 320 / 3 -9.3-12.8
2018-Dec-10 13:00N 45°00' W 074°42'0 0.0 320 / 4 -10.3-13.1
2018-Dec-10 12:00N 45°00' W 074°42'0 0.0 310 / 4 -9.8-12.6
2018-Dec-10 11:00N 45°00' W 074°42'0 0.0 310 / 3 -8.9-12.1
2018-Dec-10 10:00N 45°00' W 074°42'0 0.0 330 / 3 -7.9-11.8
2018-Dec-10 09:00N 45°00' W 074°42'0 0.0 360 / 2 -6.6-9.6
2018-Dec-10 08:00N 45°00' W 074°42'0 0.0 350 / 5 -5.3-8.7
2018-Dec-10 07:00N 45°00' W 074°42'0 0.0 360 / 5 -4.1-7.1
2018-Dec-10 06:00N 45°00' W 074°42'0 0.0 320 / 5 -2.0-4.5
2018-Dec-10 05:00N 45°00' W 074°42'0 0.0 320 / 4 -1.4-3.1
2018-Dec-10 04:00N 45°00' W 074°42'0 0.0 270 / 8 -0.8-3.1
2018-Dec-10 03:00N 45°00' W 074°42'0 0.0 250 / 10 -0.3-2.8
2018-Dec-10 02:00N 45°00' W 074°42'0 0.0 250 / 13 -0.1-2.8
2018-Dec-10 01:00N 45°00' W 074°42'0 0.0 240 / 12 -0.3-3.2
2018-Dec-10 00:00N 45°00' W 074°42'0 0.0 240 / 12 -0.2-3.5
2018-Dec-09 23:00N 45°00' W 074°42'0 0.0 240 / 13 -0.2-3.9
2018-Dec-09 22:00N 45°00' W 074°42'0 0.0 240 / 17 -0.0-3.9
2018-Dec-09 21:00N 45°00' W 074°42'0 0.0 250 / 16 0.2-3.2
2018-Dec-09 20:00N 45°00' W 074°42'0 0.0 240 / 12 -0.3-1.9
2018-Dec-09 19:00N 45°00' W 074°42'0 0.0 230 / 15 -0.8-2.2
2018-Dec-09 18:00N 45°00' W 074°42'0 0.0 230 / 16 -1.1-2.3
2018-Dec-09 17:00N 45°00' W 074°42'0 0.0 230 / 18 -1.5-2.6
2018-Dec-09 16:00N 45°00' W 074°42'0 0.0 230 / 18 -1.4-3.4
2018-Dec-09 15:00N 45°00' W 074°42'0 0.0 230 / 14 -2.1-3.7
2018-Dec-09 14:00N 45°00' W 074°42'0 0.0 230 / 12 -2.5-3.6
2018-Dec-09 13:00N 45°00' W 074°42'0 0.0 230 / 11 -3.1-3.7
2018-Dec-09 12:00N 45°00' W 074°42'0 0.0 230 / 9 -4.3-4.5
2018-Dec-09 11:00N 45°00' W 074°42'0 0.0 220 / 6 -6.1-6.3
2018-Dec-09 10:00N 45°00' W 074°42'0 0.0 200 / 6 -6.7-6.9
2018-Dec-09 09:00N 45°00' W 074°42'0 0.0 200 / 4 -7.1-7.3
2018-Dec-09 08:00N 45°00' W 074°42'0 0.0 220 / 6 -7.4-7.6
2018-Dec-09 07:00N 45°00' W 074°42'0 0.0 250 / 3 -8.3-8.5
2018-Dec-09 06:00N 45°00' W 074°42'0 0.0 190 / 3 -7.8-8.0
2018-Dec-09 05:00N 45°00' W 074°42'0 0.0 270 / 3 -7.4-7.6
2018-Dec-09 04:00N 45°00' W 074°42'0 0.0 300 / 3 -8.2-8.5
2018-Dec-09 03:00N 45°00' W 074°42'0 0.0 290 / 3 -7.6-7.8
2018-Dec-09 02:00N 45°00' W 074°42'0 0.0 230 / 8 -7.6-8.1
2018-Dec-09 01:00N 45°00' W 074°42'0 0.0 230 / 8 -8.5-8.9 4.5
2018-Dec-09 00:00N 45°00' W 074°42'0 0.0 240 / 10 -8.6-8.8 4.5
2018-Dec-08 23:00N 45°00' W 074°42'4 4.2 240 / 7 -8.5-8.7 4.5
2018-Dec-08 22:00N 45°00' W 074°36'7 7.3 210 / 6 -8.1-8.5 4.5
2018-Dec-08 21:00N 45°06' W 074°30'1010.4 250 / 8 -7.9-11.1 4.5
2018-Dec-08 20:00N 45°12' W 074°18'4 4.2 240 / 5 -8.7-11.5 4.0
2018-Dec-08 19:00N 45°12' W 074°12'0 0.0 290 / 4 -9.5-12.0 3.9
2018-Dec-08 18:00N 45°12' W 074°12'0 0.0 230 / 7 -10.4-12.0 3.9
2018-Dec-08 17:00N 45°12' W 074°12'2 9.1 240 / 7 -11.5-12.5 3.9
2018-Dec-08 16:45N 45°14' W 074°14'6 7.6
2018-Dec-08 16:00N 45°12' W 074°06'3 9.5 220 / 7 -13.1-14.6 4.0
2018-Dec-08 15:40N 45°13' W 074°02'1 7.6
2018-Dec-08 15:30N 45°14' W 074°00'4 7.8
2018-Dec-08 15:00N 45°17' W 073°57'2239.8
2018-Dec-08 15:00N 45°18' W 073°54'1 2.5 260 / 4 -13.9-16.6 3.9
2018-Dec-08 14:30N 45°18' W 073°56'0 0.0
2018-Dec-08 14:00N 45°18' W 073°56'1757.1
2018-Dec-08 14:00N 45°18' W 073°54'1 2.5 280 / 3 -14.7-17.0
2018-Dec-08 13:30N 45°18' W 073°56'0 0.0
2018-Dec-08 13:00N 45°18' W 073°56'1757.1
2018-Dec-08 13:00N 45°18' W 073°54'1 2.5 280 / 2 -16.7-17.5
2018-Dec-08 12:30N 45°18' W 073°56'0 0.0
2018-Dec-08 12:00N 45°18' W 073°56'1757.1
2018-Dec-08 12:00N 45°18' W 073°54'1 2.5 250 / 3 -16.4-17.3
2018-Dec-08 11:30N 45°18' W 073°56'0 0.0
2018-Dec-08 11:00N 45°18' W 073°56'1908.6
2018-Dec-08 11:00N 45°18' W 073°54'1 2.5 260 / 2 -16.0-17.6
2018-Dec-08 10:30N 45°18' W 073°56'0 0.0
2018-Dec-08 10:00N 45°18' W 073°56'1757.1
2018-Dec-08 10:00N 45°18' W 073°54'1 2.5 270 / 3 -16.2-17.7
2018-Dec-08 09:30N 45°18' W 073°56'0 0.0
2018-Dec-08 09:00N 45°18' W 073°56'1757.1
2018-Dec-08 09:00N 45°18' W 073°54'1 2.5 280 / 2 -15.9-17.6
2018-Dec-08 08:30N 45°18' W 073°56'0 0.0
2018-Dec-08 08:00N 45°18' W 073°56'1757.1
2018-Dec-08 08:00N 45°18' W 073°54'1 2.5 290 / 2 -15.9-17.4
2018-Dec-08 07:30N 45°18' W 073°56'0 0.0
2018-Dec-08 07:00N 45°18' W 073°56'1757.1
2018-Dec-08 07:00N 45°18' W 073°54'1 2.5 270 / 2 -15.3-17.6
2018-Dec-08 06:30N 45°18' W 073°56'0 0.0
2018-Dec-08 06:00N 45°18' W 073°56'1908.6
2018-Dec-08 06:00N 45°18' W 073°54'1 2.5 240 / 2 -15.1-17.9
2018-Dec-08 05:30N 45°18' W 073°56'0 0.0
2018-Dec-08 05:00N 45°18' W 073°56'1759.7
2018-Dec-08 05:00N 45°18' W 073°54'1 2.5 270 / 2 -14.9-17.6
2018-Dec-08 04:30N 45°18' W 073°56'0 0.0
2018-Dec-08 04:00N 45°18' W 073°56'1908.6
2018-Dec-08 04:00N 45°18' W 073°54'1 2.5 310 / 3 -13.9-16.9
2018-Dec-08 03:30N 45°18' W 073°56'0 0.0
2018-Dec-08 03:00N 45°18' W 073°56'1649.0
2018-Dec-08 03:00N 45°18' W 073°54'1 2.5 310 / 4 -13.5-16.1 4.4
2018-Dec-08 02:30N 45°18' W 073°56'0 0.0
2018-Dec-08 02:00N 45°18' W 073°56'1757.1
2018-Dec-08 02:00N 45°18' W 073°54'1 2.5 310 / 5 -13.0-16.2 4.4
2018-Dec-08 01:30N 45°18' W 073°56'0 0.0
2018-Dec-08 01:01N 45°18' W 073°56'174.5
2018-Dec-08 01:00N 45°18' W 073°54'1 2.7 290 / 4 -12.3-15.9 4.4
2018-Dec-08 00:31N 45°18' W 073°56'510.0
2018-Dec-08 00:00N 45°14' W 074°00'2132.7
2018-Dec-08 00:00N 45°12' W 074°00'612.2 290 / 13 -11.1-15.3 4.5
2018-Dec-07 23:29N 45°14' W 074°08'714.3
2018-Dec-07 23:00N 45°12' W 074°18'1010.4 260 / 12 -11.2-14.2 4.4
2018-Dec-07 22:00N 45°06' W 074°30'7 7.3 260 / 13 -10.9-14.2 4.8
2018-Dec-07 21:00N 45°00' W 074°36'1010.4 280 / 11 -10.5-14.8 4.8
2018-Dec-07 20:00N 44°54' W 074°48'4 4.3 280 / 10 -10.6-14.8 3.3
2018-Dec-07 19:00N 44°54' W 074°54'9 8.5 300 / 9 -10.0-13.4 5.0
2018-Dec-07 18:00N 44°54' W 075°06'1010.4 270 / 11 -10.4-13.6 5.2
2018-Dec-07 17:00N 44°48' W 075°18'1010.4 270 / 7 -10.7-14.0 5.3
2018-Dec-07 16:00N 44°42' W 075°30'0 0.0 280 / 5 -10.6-14.2
2018-Dec-07 15:00N 44°42' W 075°30'0 0.0 310 / 5 -11.4-14.5
2018-Dec-07 14:00N 44°42' W 075°30'0 0.0 320 / 6 -11.9-14.5
2018-Dec-07 13:00N 44°42' W 075°30'0 0.0 300 / 4 -12.0-14.0
2018-Dec-07 12:00N 44°42' W 075°30'0 0.0 300 / 6 -11.5-13.5
2018-Dec-07 11:00N 44°42' W 075°30'0 0.0 310 / 5 -10.7-12.7
2018-Dec-07 10:00N 44°42' W 075°30'0 0.0 290 / 3 -9.8-11.5
2018-Dec-07 09:00N 44°42' W 075°30'0 0.0 320 / 8 -9.2-11.6
2018-Dec-07 08:00N 44°42' W 075°30'0 0.0 310 / 7 -7.9-9.9
2018-Dec-07 07:00N 44°42' W 075°30'0 0.0 330 / 8 -6.0-8.1
2018-Dec-07 06:00N 44°42' W 075°30'0 0.0 310 / 10 -4.4-7.0
2018-Dec-07 05:00N 44°42' W 075°30'0 0.0 320 / 6 -1.9-3.4
2018-Dec-07 04:00N 44°42' W 075°30'0 0.0 300 / 4 -1.5-1.7
2018-Dec-07 03:00N 44°42' W 075°30'0 0.0 290 / 5 -0.2-1.1 5.3
2018-Dec-07 02:00N 44°42' W 075°30'0 0.0 250 / 5 0.1-0.8 5.2
2018-Dec-07 01:00N 44°42' W 075°30'7 7.4 250 / 7 0.6-1.2 5.2
2018-Dec-07 00:00N 44°48' W 075°24'4 4.3 200 / 9 0.7-0.5 5.5
2018-Dec-06 23:00N 44°48' W 075°18'7 7.4 210 / 7 0.5-1.0 5.3
2018-Dec-06 22:00N 44°54' W 075°12'4 4.3 220 / 11 0.6-0.4 5.5
2018-Dec-06 21:00N 44°54' W 075°06'9 8.5 230 / 16 0.4-0.1 5.2
2018-Dec-06 20:00N 44°54' W 074°54'4 4.3 190 / 8 -0.0-0.5 4.1
2018-Dec-06 19:00N 44°54' W 074°48'7 7.4 220 / 4 0.4-1.8 3.4
2018-Dec-06 18:00N 45°00' W 074°42'7 7.3 220 / 10 0.2-2.2 5.2
2018-Dec-06 17:00N 45°06' W 074°36'8 8.5 240 / 16 -0.3-1.2 5.1
2018-Dec-06 16:00N 45°06' W 074°24'7 7.3 220 / 17 -0.9-1.0 4.9
2018-Dec-06 15:00N 45°12' W 074°18'410.8 210 / 15 -1.5-1.7 4.9
2018-Dec-06 14:36N 45°14' W 074°12'1 8.2
2018-Dec-06 14:28N 45°14' W 074°11'4 8.3
2018-Dec-06 14:00N 45°12' W 074°06'3 4.8 230 / 11 -2.1-2.3 4.8
2018-Dec-06 13:23N 45°13' W 074°02'3 7.7
2018-Dec-06 13:00N 45°15' W 073°59'4327.4
2018-Dec-06 13:00N 45°12' W 073°54'612.0 160 / 3 -3.7-3.8 4.8
2018-Dec-06 12:30N 45°18' W 073°56'0 0.7
2018-Dec-06 12:00N 45°18' W 073°56'1217.1
2018-Dec-06 12:00N 45°18' W 073°54'1 2.6 -4.3-4.4
2018-Dec-06 11:30N 45°18' W 073°56'0 0.0
2018-Dec-06 11:00N 45°18' W 073°56'1216.3
2018-Dec-06 11:00N 45°18' W 073°54'1 2.1 210 / 2 -4.2-4.4
2018-Dec-06 10:24N 45°18' W 073°56'0 0.0
2018-Dec-06 10:00N 45°18' W 073°56'1227.1
2018-Dec-06 10:00N 45°18' W 073°54'1 2.6 200 / 3 -3.9-4.1
2018-Dec-06 09:30N 45°18' W 073°56'0 0.0
2018-Dec-06 09:00N 45°18' W 073°56'1239.9
2018-Dec-06 09:00N 45°18' W 073°54'1 2.6 150 / 3 -4.5-4.6
2018-Dec-06 08:30N 45°18' W 073°56'0 0.0
2018-Dec-06 08:00N 45°18' W 073°56'1227.9
2018-Dec-06 08:00N 45°18' W 073°54'1 2.6 140 / 3 -4.7-4.8
2018-Dec-06 07:30N 45°18' W 073°56'0 0.0
2018-Dec-06 07:00N 45°18' W 073°56'1227.1
2018-Dec-06 07:00N 45°18' W 073°54'1 2.6 120 / 2 -4.6-4.7
2018-Dec-06 06:30N 45°18' W 073°56'0 0.0
2018-Dec-06 06:00N 45°18' W 073°56'1206.5
2018-Dec-06 06:00N 45°18' W 073°54'1 2.6 110 / 2 -4.7-4.8
2018-Dec-06 05:30N 45°18' W 073°56'0 0.0
2018-Dec-06 05:00N 45°18' W 073°56'1217.1
2018-Dec-06 05:00N 45°18' W 073°54'1 2.6 120 / 2 -4.9-5.1
2018-Dec-06 04:30N 45°18' W 073°56'1 2.5
2018-Dec-06 04:00N 45°18' W 073°54'113.4 100 / 2 -5.0-5.1
2018-Dec-06 03:54N 45°18' W 073°56'0 0.0
2018-Dec-06 03:00N 45°18' W 073°56'1217.1
2018-Dec-06 03:00N 45°18' W 073°54'1 1.8 110 / 3 -4.9-5.1
2018-Dec-06 02:18N 45°18' W 073°56'0 0.0
2018-Dec-06 02:00N 45°18' W 073°56'1216.3
2018-Dec-06 02:00N 45°18' W 073°54'1 2.6 110 / 2 -4.8-5.0
2018-Dec-06 01:30N 45°18' W 073°56'0 0.0
2018-Dec-06 01:00N 45°18' W 073°56'1216.3
2018-Dec-06 01:00N 45°18' W 073°54'1 2.6 100 / 3 -4.9-5.0 4.7
2018-Dec-06 00:30N 45°18' W 073°56'1 2.5
2018-Dec-06 00:00N 45°18' W 073°54'113.4 100 / 3 -4.8-5.0 4.8
2018-Dec-05 23:54N 45°18' W 073°56'0 0.0
2018-Dec-05 23:30N 45°18' W 073°56'0 0.0
2018-Dec-05 23:00N 45°18' W 073°56'1216.3
2018-Dec-05 23:00N 45°18' W 073°54'1 2.3 120 / 3 -4.8-5.0 4.8
2018-Dec-05 22:26N 45°18' W 073°56'1 2.6
2018-Dec-05 22:00N 45°17' W 073°56'2165.8
2018-Dec-05 22:00N 45°18' W 073°54'611.1 120 / 3 -4.5-4.7 4.8
2018-Dec-05 21:27N 45°14' W 074°00'4 9.7
2018-Dec-05 21:00N 45°12' W 074°06'233.0 050 / 4 -4.4-4.6 4.9
2018-Dec-05 20:55N 45°14' W 074°08'7 7.8
2018-Dec-05 20:00N 45°12' W 074°18'1010.4 110 / 3 -4.0-4.2 5.0
2018-Dec-05 19:00N 45°06' W 074°30'1514.7 060 / 2 -3.6-3.8 5.2
2018-Dec-05 18:00N 44°54' W 074°42'9 8.5 260 / 3 -3.1-4.1 3.6
2018-Dec-05 17:00N 44°54' W 074°54'4 4.3 240 / 3 -3.0-3.9 4.5
2018-Dec-05 16:00N 44°54' W 075°00'1312.8 220 / 6 -3.8-4.4 5.5
2018-Dec-05 15:00N 44°54' W 075°18'7 7.4 190 / 5 -4.0-4.4 5.5
2018-Dec-05 14:00N 44°48' W 075°24'7 7.4 200 / 4 -4.1-4.7 5.7
2018-Dec-05 13:00N 44°42' W 075°30'0 0.0 310 / 2 -4.4-4.8
2018-Dec-05 12:00N 44°42' W 075°30'0 0.0 300 / 2 -4.6-5.1
2018-Dec-05 11:00N 44°42' W 075°30'0 0.0 300 / 2 -4.5-5.5
2018-Dec-05 10:00N 44°42' W 075°30'0 0.0 290 / 3 -4.7-5.7
2018-Dec-05 09:00N 44°42' W 075°30'0 0.0 330 / 2 -4.6-5.9
2018-Dec-05 08:00N 44°42' W 075°30'0 0.0 020 / 2 -4.4-5.8
2018-Dec-05 07:00N 44°42' W 075°30'0 0.0 310 / 2 -4.2-6.1
2018-Dec-05 06:00N 44°42' W 075°30'0 0.0 250 / 3 -4.3-6.1
2018-Dec-05 05:00N 44°42' W 075°30'0 0.0 250 / 5 -4.1-6.4
2018-Dec-05 04:00N 44°42' W 075°30'0 0.0 240 / 8 -3.8-6.2
2018-Dec-05 03:00N 44°42' W 075°30'0 0.0 240 / 6 -4.0-6.2
2018-Dec-05 02:00N 44°42' W 075°30'0 0.0 250 / 5 -4.4-6.7
2018-Dec-05 01:00N 44°42' W 075°30'0 0.0 240 / 7 -4.4-6.5
2018-Dec-05 00:00N 44°42' W 075°30'0 0.0 250 / 4 -4.7-7.3
2018-Dec-04 23:00N 44°42' W 075°30'0 0.0 280 / 3 -4.5-7.5
2018-Dec-04 22:00N 44°42' W 075°30'0 0.0 250 / 4 -4.0-7.5
2018-Dec-04 21:00N 44°42' W 075°30'0 0.0 250 / 5 -3.4-7.3
2018-Dec-04 20:00N 44°42' W 075°30'0 0.0 270 / 5 -3.4-7.4
2018-Dec-04 19:00N 44°42' W 075°30'0 0.0 280 / 5 -3.8-7.9
2018-Dec-04 18:00N 44°42' W 075°30'0 0.0 270 / 5 -4.2-8.3
2018-Dec-04 17:00N 44°42' W 075°30'0 0.0 300 / 6 -5.3-8.8
2018-Dec-04 16:00N 44°42' W 075°30'0 0.0 300 / 6 -5.6-8.5
2018-Dec-04 15:00N 44°42' W 075°30'0 0.0 320 / 4 -5.4-8.4
2018-Dec-04 14:00N 44°42' W 075°30'0 0.0 340 / 4 -5.7-8.6
2018-Dec-04 13:00N 44°42' W 075°30'0 0.0 340 / 4 -5.7-9.0
2018-Dec-04 12:00N 44°42' W 075°30'0 0.0 330 / 5 -5.6-8.9
2018-Dec-04 11:00N 44°42' W 075°30'0 0.0 350 / 6 -5.7-9.1
2018-Dec-04 10:00N 44°42' W 075°30'0 0.0 340 / 8 -5.5-8.7
2018-Dec-04 09:00N 44°42' W 075°30'0 0.0 330 / 6 -5.4-8.0
2018-Dec-04 08:00N 44°42' W 075°30'0 0.0 320 / 9 -4.8-7.4
2018-Dec-04 07:00N 44°42' W 075°30'0 0.0 320 / 8 -3.9-5.5
2018-Dec-04 06:00N 44°42' W 075°30'0 0.0 310 / 7 -3.1-4.2
2018-Dec-04 05:00N 44°42' W 075°30'0 0.0 310 / 7 -2.1-2.9
2018-Dec-04 04:00N 44°42' W 075°30'0 0.0 320 / 6 -1.4-1.6
2018-Dec-04 03:00N 44°42' W 075°30'0 0.0 330 / 5 -0.9-1.3
2018-Dec-04 02:00N 44°42' W 075°30'0 0.0 310 / 4 -1.3-1.5 5.8
2018-Dec-04 01:00N 44°42' W 075°30'0 0.0 290 / 2 -0.9-1.1 5.8
2018-Dec-04 00:00N 44°42' W 075°30'1010.4 320 / 4 -0.9-1.1 5.8
2018-Dec-03 23:00N 44°36' W 075°42'7 7.4 330 / 7 -0.8-1.4 5.8
2018-Dec-03 22:00N 44°30' W 075°48'1312.7 330 / 11 -0.6-1.1 5.9
2018-Dec-03 21:00N 44°18' W 075°54'1010.5 340 / 5997.3 -0.9-1.1 6.3
2018-Dec-03 20:00N 44°12' W 076°06'9 8.6 340 / 141005.8 -1.0-1.1 6.2
2018-Dec-03 19:00N 44°12' W 076°18'429.9 340 / 141004.5 -0.3-1.1 5.9
2018-Dec-03 18:52N 44°14' W 076°22'3 9.3
2018-Dec-03 18:31N 44°14' W 076°26'2 2.9
2018-Dec-03 17:57N 44°14' W 076°29'0 0.0
2018-Dec-03 16:56N 44°14' W 076°29'0 0.0
2018-Dec-03 16:20N 44°14' W 076°29'0 0.0
2018-Dec-03 15:38N 44°14' W 076°29'0 0.0
2018-Dec-03 15:26N 44°14' W 076°29'0 0.0
2018-Dec-03 14:02N 44°14' W 076°29'254.8
2018-Dec-03 14:00N 44°12' W 076°30'251.2 250 / 9999.6 4.8 4.6
2018-Dec-03 13:57N 44°14' W 076°29'0 0.0
2018-Dec-03 13:09N 44°14' W 076°29'213.8
2018-Dec-03 13:00N 44°12' W 076°30'213.6 250 / 10998.8 4.9 4.8
2018-Dec-03 12:50N 44°14' W 076°29'0 0.0
2018-Dec-03 12:02N 44°14' W 076°29'254.8
2018-Dec-03 12:00N 44°12' W 076°30'213.6 240 / 11997.9 5.5 5.3
2018-Dec-03 11:50N 44°14' W 076°29'0 0.0
2018-Dec-03 11:09N 44°14' W 076°29'214.4
2018-Dec-03 11:00N 44°12' W 076°30'2 8.4 240 / 13997.6 6.3 5.5
2018-Dec-03 10:44N 44°14' W 076°29'0 0.0
2018-Dec-03 10:02N 44°14' W 076°29'254.7
2018-Dec-03 10:00N 44°12' W 076°30'2 4.7 230 / 12997.4 6.6 6.0
2018-Dec-03 09:32N 44°14' W 076°29'2 4.0
2018-Dec-03 09:00N 44°12' W 076°30'214.3 210 / 11997.0 7.5 7.4
2018-Dec-03 08:50N 44°14' W 076°29'0 0.0
2018-Dec-03 08:14N 44°14' W 076°29'2 9.0
2018-Dec-03 08:00N 44°12' W 076°30'0 0.0 200 / 10997.2 7.1 7.0
2018-Dec-03 07:00N 44°12' W 076°30'2 6.3 190 / 7997.0 6.5 6.4
2018-Dec-03 06:39N 44°14' W 076°29'0 0.0
2018-Dec-03 06:08N 44°14' W 076°29'215.6
2018-Dec-03 06:00N 44°12' W 076°30'213.9 210 / 6996.6 7.6 7.5
2018-Dec-03 05:50N 44°14' W 076°29'2 2.6
2018-Dec-03 05:00N 44°12' W 076°30'2 6.1 200 / 9997.4 7.1 7.0
2018-Dec-03 04:38N 44°14' W 076°29'2 3.4
2018-Dec-03 04:00N 44°12' W 076°30'250.8 210 / 11996.7 8.7 8.5
2018-Dec-03 03:57N 44°14' W 076°29'0 0.0
2018-Dec-03 03:27N 44°14' W 076°29'2 4.8
2018-Dec-03 03:00N 44°12' W 076°30'2 6.1 170 / 12997.4 8.0 7.9
2018-Dec-03 02:38N 44°14' W 076°29'0 0.0
2018-Dec-03 02:14N 44°14' W 076°29'2 8.8
2018-Dec-03 02:00N 44°12' W 076°30'238.6 180 / 16998.0 7.9 7.7
2018-Dec-03 01:56N 44°14' W 076°29'0 0.0
2018-Dec-03 01:26N 44°14' W 076°29'2 4.9
2018-Dec-03 01:00N 44°12' W 076°30'250.9 180 / 14997.8 7.8 7.7 3.5
2018-Dec-03 00:57N 44°14' W 076°29'0 0.0
2018-Dec-03 00:26N 44°14' W 076°29'2 4.9
2018-Dec-03 00:00N 44°12' W 076°30'236.1 180 / 13998.1 7.8 7.7 3.5
2018-Dec-02 23:56N 44°14' W 076°29'0 0.0
2018-Dec-02 23:26N 44°14' W 076°29'2 4.9
2018-Dec-02 23:00N 44°12' W 076°30'236.0 180 / 15998.4 7.8 7.7 3.5
2018-Dec-02 22:56N 44°14' W 076°29'0 0.0
2018-Dec-02 22:29N 44°14' W 076°29'2 5.0
2018-Dec-02 22:00N 44°12' W 076°31'160.7
2018-Dec-02 22:00N 44°12' W 076°30'9 8.6 170 / 18998.2 7.4 7.3 6.2
2018-Dec-02 21:00N 44°12' W 076°42'1010.5 190 / 6998.7 7.1 7.0 6.4
2018-Dec-02 20:00N 44°06' W 076°54'7 7.4 180 / 7998.9 6.7 6.7 6.5
2018-Dec-02 19:00N 44°00' W 077°00'1212.0 140 / 6998.7 7.4 7.3 2.5
2018-Dec-02 18:00N 44°12' W 077°00'1010.5 160 / 9999.5 5.8 5.7 2.1
2018-Dec-02 17:00N 44°06' W 077°12'4 4.3 170 / 101000.2 5.8 5.7 2.1
2018-Dec-02 16:00N 44°06' W 077°18'0 0.0 130 / 91001.2 5.0 4.9
2018-Dec-02 15:00N 44°06' W 077°18'   130 / 101002.1 4.2 4.1

Dump ship's entire track history